createdAt,value
2022-11-15T00:00:50.739Z,96246.13
2022-11-15T00:03:35.926Z,96244.63
2022-11-15T00:06:22.482Z,96258.38
2022-11-15T04:55:45.926Z,96066.47
2022-11-15T04:58:30.915Z,96088.50
2022-11-15T05:01:16.945Z,96093.19
2022-11-15T05:04:20.607Z,96092.13
2022-11-15T05:07:05.672Z,96073.72
2022-11-15T05:09:50.858Z,96088.25
2022-11-15T05:12:36.082Z,96085.16
2022-11-15T05:15:21.089Z,96065.69
2022-11-15T05:18:06.282Z,96089.06
2022-11-15T05:20:51.451Z,96068.81
2022-11-15T05:23:36.937Z,96066.22
2022-11-15T05:26:21.758Z,96090.59
2022-11-15T05:29:06.904Z,96057.63
2022-11-15T05:31:52.049Z,96083.88
2022-11-15T05:34:37.563Z,96069.84
2022-11-15T05:37:22.954Z,96079.44
2022-11-15T05:40:08.917Z,96076.31
2022-11-15T05:42:54.501Z,96076.59
2022-11-15T05:45:39.578Z,96053.75
2022-11-15T05:48:24.894Z,96075.56
2022-11-15T05:51:10.456Z,96033.53
2022-11-15T05:53:57.742Z,96034.31
2022-11-15T05:56:43.786Z,96041.28
2022-11-15T05:59:31.623Z,96071.91
2022-11-15T06:02:16.686Z,96078.13
2022-11-15T06:05:02.260Z,96055.16
2022-11-15T06:07:47.191Z,96073.13
2022-11-15T06:10:33.974Z,96083.31
2022-11-15T06:13:19.266Z,96076.56
2022-11-15T06:16:04.721Z,96054.53
2022-11-15T06:18:49.754Z,96070.34
2022-11-15T06:21:35.028Z,96047.25
2022-11-15T06:24:20.318Z,96047.00
2022-11-15T06:27:05.676Z,96075.28
2022-11-15T06:29:50.907Z,96080.47
2022-11-15T06:32:36.176Z,96062.56
2022-11-15T06:35:21.279Z,96043.13
2022-11-15T06:38:09.435Z,96058.41
2022-11-15T06:40:54.536Z,96073.22
2022-11-15T06:43:40.152Z,96073.47
2022-11-15T06:46:25.188Z,96081.25
2022-11-15T06:49:10.442Z,96056.34
2022-11-15T06:51:55.830Z,96035.59
2022-11-15T06:54:41.060Z,95996.19
2022-11-15T06:57:26.061Z,96080.22
2022-11-15T07:00:11.798Z,96061.78
2022-11-15T07:03:01.439Z,96044.16
2022-11-15T07:05:55.615Z,96050.66
2022-11-15T07:08:42.595Z,96088.00
2022-11-15T07:11:27.687Z,96065.69
2022-11-15T07:14:12.959Z,96075.03
2022-11-15T07:16:58.179Z,96080.75
2022-11-15T07:19:43.525Z,96080.47
2022-11-15T07:22:28.694Z,96065.69
2022-11-15T07:25:14.261Z,96082.81
2022-11-15T07:28:00.583Z,96062.56
2022-11-15T07:30:46.044Z,96078.66
2022-11-15T07:33:52.627Z,96081.25
2022-11-15T07:36:38.010Z,96063.09
2022-11-15T07:39:23.188Z,96064.38
2022-11-15T07:42:26.959Z,96059.47
2022-11-15T07:45:12.135Z,96050.88
2022-11-15T07:47:57.883Z,96094.66
2022-11-15T07:50:43.798Z,96055.97
2022-11-15T07:53:29.241Z,96076.69
2022-11-15T07:56:14.710Z,96048.94
2022-11-15T07:59:00.198Z,96043.50
2022-11-15T08:01:45.210Z,96073.50
2022-11-15T08:04:30.273Z,96073.75
2022-11-15T08:07:15.717Z,96044.09
2022-11-15T08:10:02.205Z,96070.28
2022-11-15T08:12:47.190Z,96064.22
2022-11-15T08:15:33.603Z,96065.78
2022-11-15T08:18:18.923Z,96062.06
2022-11-15T08:21:04.754Z,96044.44
2022-11-15T08:23:50.380Z,96054.72
2022-11-15T08:26:36.037Z,96025.09
2022-11-15T08:29:21.094Z,96041.59
2022-11-15T08:32:06.374Z,96047.19
2022-11-15T08:34:51.739Z,96035.09
2022-11-15T08:37:37.107Z,96032.97
2022-11-15T08:40:24.237Z,96041.13
2022-11-15T08:43:09.779Z,96003.63
2022-11-15T08:45:57.754Z,96022.25
2022-11-15T08:48:42.965Z,96032.75
2022-11-15T08:51:28.226Z,96013.16
2022-11-15T08:54:13.534Z,96019.88
2022-11-15T08:56:58.960Z,96015.50
2022-11-15T08:59:44.559Z,95979.97
2022-11-15T09:02:29.521Z,96000.34
2022-11-15T09:05:16.456Z,96007.69
2022-11-15T09:08:06.569Z,96015.31
2022-11-15T09:10:58.932Z,96020.72
2022-11-15T09:13:44.310Z,96027.81
2022-11-15T09:16:31.575Z,96032.13
2022-11-15T09:19:16.660Z,96002.06
2022-11-15T09:22:02.176Z,96019.94
2022-11-15T09:24:47.085Z,96025.09
2022-11-15T09:27:32.943Z,96007.84
2022-11-15T09:30:18.355Z,96004.84
2022-11-15T09:33:11.938Z,96006.78
2022-11-15T09:36:08.513Z,96020.97
2022-11-15T09:38:53.425Z,95992.84
2022-11-15T09:41:45.881Z,96008.25
2022-11-15T09:44:42.146Z,96008.63
2022-11-15T09:47:38.537Z,96009.97
2022-11-15T09:50:47.874Z,96000.03
2022-11-15T09:53:50.712Z,96003.44
2022-11-15T09:56:22.434Z,96004.81
2022-11-15T09:59:17.357Z,95987.97
2022-11-15T10:01:56.171Z,95984.84
2022-11-15T10:04:24.529Z,95974.00
2022-11-15T10:06:59.003Z,95962.78
2022-11-15T10:09:44.135Z,95960.25
2022-11-15T10:12:13.808Z,95980.91
2022-11-15T10:14:40.599Z,95981.19
2022-11-15T10:17:28.273Z,95982.94
2022-11-15T10:20:21.371Z,95968.84
2022-11-15T10:23:01.705Z,95974.25
2022-11-15T10:25:34.032Z,95943.34
2022-11-15T10:28:11.617Z,95967.03
2022-11-15T10:30:40.904Z,95959.78
2022-11-15T10:33:34.783Z,95958.09
2022-11-15T10:36:29.579Z,95947.28
2022-11-15T10:38:57.721Z,95956.22
2022-11-15T10:41:27.355Z,95945.53
2022-11-15T10:44:21.749Z,95933.78
2022-11-15T10:47:00.447Z,95936.22
2022-11-15T10:49:29.686Z,95932.91
2022-11-15T10:52:02.076Z,95915.28
2022-11-15T10:54:37.190Z,95924.38
2022-11-15T10:57:34.745Z,95907.81
2022-11-15T11:00:19.755Z,95921.59
2022-11-15T11:02:58.736Z,95918.97
2022-11-15T11:05:41.267Z,95901.97
2022-11-15T11:08:12.038Z,95904.56
2022-11-15T11:11:00.186Z,95900.97
2022-11-15T11:13:28.962Z,95888.41
2022-11-15T11:16:26.020Z,95889.16
2022-11-15T11:19:04.808Z,95885.31
2022-11-15T11:21:46.844Z,95852.28
2022-11-15T11:24:39.900Z,95881.38
2022-11-15T11:27:25.294Z,95873.84
2022-11-15T11:29:54.820Z,95872.47
2022-11-15T11:32:34.554Z,95861.25
2022-11-15T11:35:25.823Z,95869.88
2022-11-15T11:37:59.782Z,95876.16
2022-11-15T11:40:31.637Z,95871.88
2022-11-15T11:43:20.072Z,95863.19
2022-11-15T11:46:25.711Z,95866.69
2022-11-15T11:49:09.229Z,95791.84
2022-11-15T11:51:42.400Z,95831.53
2022-11-15T11:54:26.836Z,95846.25
2022-11-15T11:56:55.356Z,95848.50
2022-11-15T11:59:49.502Z,95845.00
2022-11-15T12:02:27.881Z,95842.25
2022-11-15T12:05:04.125Z,95839.00
2022-11-15T12:07:35.543Z,95841.53
2022-11-15T12:10:29.279Z,95844.53
2022-11-15T12:13:05.248Z,95844.13
2022-11-15T12:15:59.265Z,95837.66
2022-11-15T12:18:25.922Z,95832.75
2022-11-15T12:20:58.246Z,95838.16
2022-11-15T12:23:30.582Z,95836.03
2022-11-15T12:26:05.162Z,95826.63
2022-11-15T12:28:58.433Z,95816.91
2022-11-15T12:31:36.082Z,95814.81
2022-11-15T12:34:07.424Z,95777.03
2022-11-15T12:36:40.999Z,95815.06
2022-11-15T12:39:12.627Z,95811.25
2022-11-15T12:41:45.500Z,95793.06
2022-11-15T12:44:34.787Z,95804.69
2022-11-15T12:47:10.255Z,95789.56
2022-11-15T12:49:36.786Z,95801.31
2022-11-15T12:52:03.373Z,95799.88
2022-11-15T12:54:33.276Z,95802.63
2022-11-15T12:57:07.626Z,95796.91
2022-11-15T12:59:56.033Z,95794.28
2022-11-15T13:02:24.357Z,95795.72
2022-11-15T13:04:52.581Z,95805.09
2022-11-15T13:07:40.891Z,95800.78
2022-11-15T13:10:13.735Z,95797.88
2022-11-15T13:12:46.506Z,95799.63
2022-11-15T13:15:13.050Z,95794.69
2022-11-15T13:17:54.359Z,95793.56
2022-11-15T13:20:32.296Z,95792.59
2022-11-15T13:23:17.688Z,95785.41
2022-11-15T13:25:50.442Z,95788.66
2022-11-15T13:28:19.558Z,95791.72
2022-11-15T13:31:22.584Z,95775.44
2022-11-15T13:33:49.620Z,95749.03
2022-11-15T13:36:23.806Z,95769.22
2022-11-15T13:39:06.687Z,95747.94
2022-11-15T13:41:45.895Z,95763.88
2022-11-15T13:44:30.404Z,95752.81
2022-11-15T13:47:14.842Z,95749.66
2022-11-15T13:49:42.311Z,95754.75
2022-11-15T13:52:15.713Z,95747.75
2022-11-15T13:54:53.837Z,95745.69
2022-11-15T13:57:25.176Z,95720.44
2022-11-15T13:59:55.755Z,95745.63
2022-11-15T14:02:33.940Z,95740.88
2022-11-15T14:05:16.427Z,95726.53
2022-11-15T14:07:58.520Z,95731.28
2022-11-15T14:10:38.446Z,95714.75
2022-11-15T14:13:31.451Z,95708.59
2022-11-15T14:16:18.836Z,95708.41
2022-11-15T14:18:51.536Z,95694.94
2022-11-15T14:21:19.560Z,95681.44
2022-11-15T14:23:47.043Z,95710.44
2022-11-15T14:26:32.074Z,95699.63
2022-11-15T14:29:28.753Z,95695.75
2022-11-15T14:32:13.891Z,95695.06
2022-11-15T14:34:40.567Z,95683.09
2022-11-15T14:37:25.756Z,95682.78
2022-11-15T14:39:53.300Z,95655.38
2022-11-15T14:42:20.787Z,95679.97
2022-11-15T14:44:47.919Z,95643.91
2022-11-15T14:47:14.931Z,95660.13
2022-11-15T14:49:41.723Z,95665.19
2022-11-15T14:52:28.757Z,95649.69
2022-11-15T14:54:59.131Z,95641.63
2022-11-15T14:57:25.762Z,95651.94
2022-11-15T14:59:52.888Z,95652.28
2022-11-15T15:02:24.625Z,95656.19
2022-11-15T15:04:51.805Z,95652.03
2022-11-15T15:07:19.361Z,95635.38
2022-11-15T15:09:47.044Z,95646.59
2022-11-15T15:12:22.200Z,95632.66
2022-11-15T15:14:50.874Z,95625.00
2022-11-15T15:17:18.219Z,95633.28
2022-11-15T15:19:45.166Z,95597.09
2022-11-15T15:22:20.525Z,95646.06
2022-11-15T15:24:47.608Z,95643.34
2022-11-15T15:27:14.808Z,95606.81
2022-11-15T15:29:42.084Z,95638.41
2022-11-15T15:32:09.621Z,95639.06
2022-11-15T15:34:36.256Z,95637.22
2022-11-15T15:37:23.596Z,95634.41
2022-11-15T15:39:52.141Z,95630.78
2022-11-15T15:42:19.822Z,95638.59
2022-11-15T15:44:47.070Z,95630.63
2022-11-15T15:47:16.823Z,95619.19
2022-11-15T15:49:43.487Z,95634.47
2022-11-15T15:52:10.135Z,95599.28
2022-11-15T15:54:36.961Z,95629.41
2022-11-15T15:57:03.749Z,95610.50
2022-11-15T15:59:30.348Z,95629.47
2022-11-15T16:01:57.027Z,95615.38
2022-11-15T16:04:23.844Z,95606.13
2022-11-15T16:06:53.763Z,95623.44
2022-11-15T16:09:40.654Z,95615.00
2022-11-15T16:12:07.703Z,95607.13
2022-11-15T16:14:34.289Z,95616.28
2022-11-15T16:17:00.887Z,95598.06
2022-11-15T16:19:27.508Z,95592.34
2022-11-15T16:21:54.113Z,95597.97
2022-11-15T16:24:21.709Z,95603.53
2022-11-15T16:26:49.501Z,95609.22
2022-11-15T16:29:16.203Z,95582.72
2022-11-15T16:31:42.911Z,95607.88
2022-11-15T16:34:09.644Z,95605.72
2022-11-15T16:36:36.575Z,95604.66
2022-11-15T16:39:05.077Z,95610.22
2022-11-15T16:41:32.392Z,95604.66
2022-11-15T16:43:59.292Z,95603.56
2022-11-15T16:46:28.089Z,95567.81
2022-11-15T16:48:55.218Z,95602.22
2022-11-15T16:51:23.144Z,95602.25
2022-11-15T16:53:50.096Z,95557.56
2022-11-15T16:56:19.703Z,95602.25
2022-11-15T16:58:46.476Z,95595.31
2022-11-15T17:01:35.330Z,95599.19
2022-11-15T17:04:12.725Z,95597.03
2022-11-15T17:06:41.285Z,95563.72
2022-11-15T17:09:15.976Z,95580.97
2022-11-15T17:11:43.389Z,95601.94
2022-11-15T17:14:10.911Z,95556.66
2022-11-15T17:16:42.080Z,95548.16
2022-11-15T17:19:16.628Z,95599.47
2022-11-15T17:21:44.353Z,95581.44
2022-11-15T17:24:11.287Z,95595.78
2022-11-15T17:26:40.802Z,95602.06
2022-11-15T17:29:08.090Z,95573.75
2022-11-15T17:31:38.802Z,95597.47
2022-11-15T17:34:06.524Z,95600.84
2022-11-15T17:36:33.524Z,95580.06
2022-11-15T17:39:00.384Z,95583.44
2022-11-15T17:41:28.662Z,95596.38
2022-11-15T17:43:59.969Z,95596.84
2022-11-15T17:46:28.257Z,95529.31
2022-11-15T17:48:55.883Z,95578.75
2022-11-15T17:51:24.006Z,95554.50
2022-11-15T17:53:51.458Z,95554.56
2022-11-15T17:56:20.331Z,95570.59
2022-11-15T17:58:55.450Z,95553.97
2022-11-15T18:01:33.598Z,95576.81
2022-11-15T18:04:02.085Z,95572.50
2022-11-15T18:06:32.557Z,95574.06
2022-11-15T18:09:00.104Z,95574.53
2022-11-15T18:11:41.507Z,95580.66
2022-11-15T18:14:12.591Z,95510.41
2022-11-15T18:16:40.276Z,95532.88
2022-11-15T18:19:13.745Z,95552.75
2022-11-15T18:21:57.652Z,95559.22
2022-11-15T18:24:35.004Z,95555.06
2022-11-15T18:27:03.894Z,95551.78
2022-11-15T18:29:31.055Z,95532.69
2022-11-15T18:31:58.894Z,95556.25
2022-11-15T18:34:31.930Z,95558.84
2022-11-15T18:36:59.165Z,95553.94
2022-11-15T18:39:25.764Z,95553.13
2022-11-15T18:41:52.535Z,95520.75
2022-11-15T18:44:19.432Z,95521.97
2022-11-15T18:46:46.116Z,95546.50
2022-11-15T18:49:14.066Z,95517.06
2022-11-15T18:51:44.087Z,95544.78
2022-11-15T18:54:12.632Z,95543.72
2022-11-15T18:56:40.162Z,95516.59
2022-11-15T18:59:10.474Z,95517.25
2022-11-15T19:01:42.891Z,95530.69
2022-11-15T19:04:18.442Z,95499.75
2022-11-15T19:06:47.248Z,95532.88
2022-11-15T19:09:16.143Z,95535.34
2022-11-15T19:11:44.384Z,95538.06
2022-11-15T19:14:12.875Z,95537.03
2022-11-15T19:16:52.015Z,95511.31
2022-11-15T19:19:24.435Z,95535.66
2022-11-15T19:21:52.492Z,95528.38
2022-11-15T19:24:19.359Z,95540.84
2022-11-15T19:26:46.420Z,95524.31
2022-11-15T19:29:17.301Z,95514.88
2022-11-15T19:31:44.362Z,95512.13
2022-11-15T19:34:11.237Z,95526.00
2022-11-15T19:36:40.506Z,95531.53
2022-11-15T19:39:09.925Z,95505.66
2022-11-15T19:41:38.621Z,95525.78
2022-11-15T19:44:06.467Z,95524.56
2022-11-15T19:46:33.251Z,95513.03
2022-11-15T19:49:00.347Z,95520.53
2022-11-15T19:51:30.239Z,95501.31
2022-11-15T19:53:59.527Z,95507.34
2022-11-15T19:56:26.139Z,95499.66
2022-11-15T19:58:54.517Z,95456.00
2022-11-15T20:01:25.486Z,95504.88
2022-11-15T20:03:54.683Z,95512.56
2022-11-15T20:06:23.998Z,95508.97
2022-11-15T20:08:51.169Z,95511.84
2022-11-15T20:11:18.382Z,95511.88
2022-11-15T20:13:45.138Z,95519.25
2022-11-15T20:16:22.628Z,95523.88
2022-11-15T20:18:51.003Z,95492.75
2022-11-15T20:21:18.038Z,95507.00
2022-11-15T20:23:44.733Z,95505.06
2022-11-15T20:26:12.463Z,95507.31
2022-11-15T20:28:40.582Z,95510.47
2022-11-15T20:31:07.877Z,95514.28
2022-11-15T20:33:34.885Z,95519.41
2022-11-15T20:36:07.056Z,95499.94
2022-11-15T20:38:34.644Z,95506.41
2022-11-15T20:41:01.563Z,95483.19
2022-11-15T20:43:28.273Z,95451.09
2022-11-15T20:45:55.425Z,95487.88
2022-11-15T20:48:26.739Z,95492.84
2022-11-15T20:51:04.598Z,95496.81
2022-11-15T20:53:32.027Z,95487.78
2022-11-15T20:56:08.007Z,95487.31
2022-11-15T20:58:36.333Z,95455.53
2022-11-15T21:01:07.244Z,95480.69
2022-11-15T21:03:35.109Z,95474.47
2022-11-15T21:06:02.305Z,95410.53
2022-11-15T21:08:49.398Z,95466.50
2022-11-15T21:11:35.024Z,95454.69
2022-11-15T21:14:06.315Z,95449.00
2022-11-15T21:16:35.544Z,95426.50
2022-11-15T21:19:02.170Z,95440.41
2022-11-15T21:21:28.799Z,95441.28
2022-11-15T21:23:55.427Z,95467.47
2022-11-15T21:26:25.689Z,95448.94
2022-11-15T21:28:52.722Z,95452.41
2022-11-15T21:31:19.726Z,95458.91
2022-11-15T21:33:46.520Z,95453.50
2022-11-15T21:36:13.146Z,95448.81
2022-11-15T21:38:39.851Z,95452.38
2022-11-15T21:41:06.750Z,95409.78
2022-11-15T21:43:33.611Z,95439.25
2022-11-15T21:46:03.544Z,95433.09
2022-11-15T21:48:32.008Z,95431.56
2022-11-15T21:51:01.295Z,95420.75
2022-11-15T21:53:29.341Z,95410.16
2022-11-15T21:55:55.907Z,95378.38
2022-11-15T21:58:22.887Z,95415.97
2022-11-15T22:01:09.302Z,95415.81
2022-11-15T22:03:36.573Z,95390.72
2022-11-15T22:06:03.350Z,95413.44
2022-11-15T22:08:31.387Z,95388.72
2022-11-15T22:10:58.671Z,95405.25
2022-11-15T22:13:26.143Z,95398.25
2022-11-15T22:15:54.336Z,95403.97
2022-11-15T22:18:26.459Z,95402.84
2022-11-15T22:21:02.862Z,95380.34
2022-11-15T22:23:32.263Z,95379.81
2022-11-15T22:25:59.710Z,95377.16
2022-11-15T22:28:26.537Z,95354.59
2022-11-15T22:30:54.738Z,95370.09
2022-11-15T22:33:24.303Z,95359.13
2022-11-15T22:35:51.038Z,95361.47
2022-11-15T22:38:18.442Z,95355.19
2022-11-15T22:40:47.013Z,95354.06
2022-11-15T22:43:15.611Z,95345.13
2022-11-15T22:45:51.258Z,95349.75
2022-11-15T22:48:19.942Z,95335.47
2022-11-15T22:50:47.404Z,95319.13
2022-11-15T22:53:14.201Z,95335.16
2022-11-15T22:55:41.840Z,95327.50
2022-11-15T22:58:08.875Z,95330.97
2022-11-15T23:00:35.871Z,95326.06
2022-11-15T23:03:03.083Z,95318.75
2022-11-15T23:05:29.888Z,95324.44
2022-11-15T23:07:56.637Z,95297.41
2022-11-15T23:10:41.851Z,95321.66
2022-11-15T23:13:18.637Z,95284.00
2022-11-15T23:16:10.479Z,95322.34
2022-11-15T23:18:43.159Z,95302.38
2022-11-15T23:21:36.875Z,95302.06
2022-11-15T23:24:04.826Z,95312.50
2022-11-15T23:26:34.846Z,95308.59
2022-11-15T23:29:01.598Z,95276.41
2022-11-15T23:31:46.821Z,95265.03
2022-11-15T23:34:15.457Z,95308.72
2022-11-15T23:36:45.286Z,95288.25
2022-11-15T23:39:12.196Z,95271.44
2022-11-15T23:41:38.960Z,95295.91
2022-11-15T23:44:05.847Z,95278.38
2022-11-15T23:46:33.226Z,95272.25
2022-11-15T23:49:00.011Z,95271.53
2022-11-15T23:51:26.740Z,95252.59
2022-11-15T23:53:53.612Z,95294.78
2022-11-15T23:56:21.145Z,95275.44
2022-11-15T23:58:48.032Z,95294.47
